Low Mountain, Arizona
Current Conditions -  °F | °C
As of 3:53 AM on Sunday 23 Nov 2014 (Local Time) from KGUP Reporting Station
Clear Clear  
Wind Chill: -3°   Ceiling: Unl
Heat Index:   Visibility: 10mi
Dew Point: -8°   Wind: 13mph
Humidity: 50%   Direction: 230°SW
Pressure: 29.88"   Gusts: NA
Location:  36.1012°N, 109.584°W
Report Text: KGUP 231053Z AUTO 23011KT 10SM CLR 02/M08 A2988 RMK AO2 SLP070 T00171078
Loading
Personal Weather Stations






























Interactive Weather Map New forecast layout! Learn more

10-Day Weather Forecast

Advertisements
Track Severe Weather on mobile